Flight Track Log - Related Links

Times and Time Zones

All times are in EDT time to prevent confusion due to time zone crossing. See the UPS1301 flight status page for this flight to view local times or setup timezone preferences in your user account.

Time Position Orientation Groundspeed Altitude Reporting Facility
EDT Latitude Longitude Course Direction KTS MPH feet Rate Location/Type
Fri 12:02:03 AM 33.6500 -84.4333 270° West 148 170 2,000  Level Atlanta TRACON
Fri 12:02:57 AM 33.6500 -84.4833 270° West 184 212 3,300 1,850 Climbing Atlanta TRACON
Fri 12:04:03 AM 33.6833 -84.5500 301° West 237 273 5,700 2,600 Climbing Atlanta TRACON
Fri 12:04:57 AM 33.7500 -84.5833 337° Northwest 270 311 8,500 2,738 Climbing Atlanta TRACON
Fri 12:06:32 AM 33.8661 -84.5842 360° North 295 339 12,500 2,787 Climbing Atlanta Center
Fri 12:07:32 AM 33.9475 -84.5847 360° North 295 339 15,700 3,150 Climbing Atlanta Center
Fri 12:08:32 AM 34.0308 -84.5903 357° North 290 334 18,800 2,900 Climbing Atlanta Center
Fri 12:09:32 AM 34.1186 -84.5883 North 295 339 21,500 2,500 Climbing Atlanta Center
Fri 12:10:32 AM 34.2042 -84.5939 357° North 311 358 23,800 2,450 Climbing Atlanta Center
Fri 12:11:32 AM 34.2939 -84.5994 357° North 322 371 26,400 2,500 Climbing Atlanta Center
Fri 12:12:32 AM 34.3836 -84.6203 349° North 327 376 28,800 1,800 Climbing Atlanta Center
Fri 12:13:32 AM 34.4753 -84.6411 349° North 332 382 30,000 600 Climbing Atlanta Center
Fri 12:14:32 AM 34.5753 -84.6669 348° North 350 403 30,000  Level Atlanta Center
Fri 12:15:32 AM 34.6900 -84.6956 348° North 368 423 30,000  Level Atlanta Center
Fri 12:16:32 AM 34.7942 -84.7217 348° North 373 429 30,000  Level Atlanta Center
Fri 12:17:32 AM 34.8983 -84.7478 348° North 373 429 30,000  Level Atlanta Center
Fri 12:18:32 AM 35.0006 -84.7742 348° North 373 429 30,000  Level Atlanta Center
Fri 12:19:32 AM 35.1067 -84.8003 349° North 378 435 30,000  Level Atlanta Center
Fri 12:20:32 AM 35.2089 -84.8267 348° North 378 435 30,000  Level Atlanta Center
Fri 12:21:32 AM 35.3131 -84.8506 349° North 378 435 30,000  Level Atlanta Center
Fri 12:22:32 AM 35.4128 -84.8772 348° North 373 429 30,000  Level Atlanta Center
Fri 12:23:32 AM 35.5169 -84.9036 348° North 373 429 30,000  Level Atlanta Center
Fri 12:25:21 AM 35.6997 -84.9547 347° North 374 430 30,000  Level Indianapolis Center
Fri 12:26:22 AM 35.7992 -84.9858 346° North 368 423 30,000  Level Indianapolis Center
Fri 12:27:23 AM 35.9039 -85.0097 350° North 376 433 30,000  Level Indianapolis Center
Fri 12:28:24 AM 36.0117 -85.0339 350° North 373 429 30,000  Level Indianapolis Center
Fri 12:29:24 AM 36.1128 -85.0564 350° North 367 422 30,000  Level Indianapolis Center
Fri 12:30:25 AM 36.2144 -85.0806 349° North 368 423 30,000  Level Indianapolis Center
Fri 12:31:26 AM 36.3147 -85.1039 349° North 367 422 30,000 -49 Level Indianapolis Center
Fri 12:32:27 AM 36.4147 -85.1272 349° North 364 419 29,900 -393 Descending Indianapolis Center
Fri 12:33:28 AM 36.5117 -85.1500 349° North 358 412 29,200 -934 Descending Indianapolis Center
Fri 12:34:29 AM 36.6050 -85.1619 354° North 343 395 28,000 -1,230 Descending Indianapolis Center
Fri 12:35:30 AM 36.7019 -85.1436 North 349 402 26,700 -1,328 Descending Indianapolis Center
Fri 12:36:31 AM 36.7978 -85.1253 North 349 402 25,300 -1,377 Descending Indianapolis Center
Fri 12:37:32 AM 36.8983 -85.1053 North 358 412 23,900 -1,279 Descending Indianapolis Center
Fri 12:38:33 AM 36.9989 -85.0847 North 365 420 22,700 -1,041 Descending Indianapolis Center
Fri 12:39:33 AM 37.0997 -85.0656 North 367 422 21,800 -893 Descending Indianapolis Center
Fri 12:40:34 AM 37.1969 -85.0458 North 355 409 20,900 -1,574 Descending Indianapolis Center
Fri 12:41:35 AM 37.3072 -85.0247 North 345 397 18,600 -2,262 Descending Indianapolis Center
Fri 12:42:36 AM 37.4011 -85.0056 North 343 395 16,300 -2,213 Descending Indianapolis Center
Fri 12:43:37 AM 37.4933 -84.9875 North 337 388 14,100 -1,574 Descending Indianapolis Center
Fri 12:44:38 AM 37.5825 -84.9675 10° North 328 377 13,100 -843 Descending Indianapolis Center
Fri 12:45:38 AM 37.6639 -84.9700 359° North 306 352 12,400 -1,339 Descending Indianapolis Center
Fri 12:46:39 AM 37.7219 -85.0475 313° West 299 344 10,400 -1,328 Descending Indianapolis Center
Fri 12:47:40 AM 37.7764 -85.1233 312° West 290 334 9,700 -1,082 Descending Indianapolis Center
Fri 12:48:41 AM 37.8089 -85.2050 297° West 262 302 8,200 -1,230 Descending Indianapolis Center
Fri 12:49:42 AM 37.8411 -85.2928 295° West 260 299 7,200 -942 Descending Indianapolis Center
Fri 12:50:42 AM 37.8672 -85.3647 295° West 228 262 6,300 -1,091 Descending Indianapolis Center
Fri 12:51:43 AM 37.8928 -85.4347 295° West 219 252 5,000 -1,131 Descending Indianapolis Center
Fri 12:52:44 AM 37.9072 -85.5106 284° West 220 253 4,000 -836 Descending Indianapolis Center
Fri 12:53:45 AM 37.8914 -85.5814 254° West 227 261 3,300 -496 Descending Indianapolis Center
Fri 12:54:45 AM 37.8881 -85.6439 266° West 125 144 3,000 -149 Descending Indianapolis Center
Fri 12:55:46 AM 37.9250 -85.6467 357° North 129 148 3,000  Level Indianapolis Center
Fri 12:56:47 AM 37.9625 -85.6542 351° North 133 153 3,000  Level Indianapolis Center
Fri 12:57:47 AM 37.9994 -85.6681 343° North 135 155 3,000 -50 Level Indianapolis Center
Fri 12:58:48 AM 38.0378 -85.6794 347° North 138 159 2,900 -295 Descending Indianapolis Center
Fri 12:59:49 AM 38.0706 -85.6914 344° North 134 154 2,400 -581 Descending Indianapolis Center
Fri 01:01:00 AM 38.1701 -85.6721 North  Level FlightAware Approximate
Fri 01:02:25 AM 38.1500 -85.7167 North 114 131 800  Level Louisville TRACON
Fri 01:04:00 AM 38.1667 -85.7333 208° Southwest  Level FlightAware Approximate

Login

Don't have an account? Register now (free) for customized features, flight alerts, and more!